sensor_id;sensor_type;location;lat;lon;timestamp;P1;durP1;ratioP1;P2;durP2;ratioP2
29280;SDS011;25048;49.590;11.026;2022-08-18T00:02:16;6.05;;;4.97;;
29280;SDS011;25048;49.590;11.026;2022-08-18T00:04:46;10.63;;;4.17;;
29280;SDS011;25048;49.590;11.026;2022-08-18T00:07:16;7.08;;;4.03;;
29280;SDS011;25048;49.590;11.026;2022-08-18T00:09:44;7.95;;;4.12;;
29280;SDS011;25048;49.590;11.026;2022-08-18T00:12:22;6.58;;;4.03;;
29280;SDS011;25048;49.590;11.026;2022-08-18T00:14:54;5.95;;;3.70;;
29280;SDS011;25048;49.590;11.026;2022-08-18T00:17:22;9.08;;;4.17;;
29280;SDS011;25048;49.590;11.026;2022-08-18T00:19:50;7.22;;;3.92;;
29280;SDS011;25048;49.590;11.026;2022-08-18T00:22:18;5.75;;;4.12;;
29280;SDS011;25048;49.590;11.026;2022-08-18T00:24:52;6.87;;;4.20;;
29280;SDS011;25048;49.590;11.026;2022-08-18T00:27:17;5.08;;;4.58;;
29280;SDS011;25048;49.590;11.026;2022-08-18T00:29:47;9.98;;;4.03;;
29280;SDS011;25048;49.590;11.026;2022-08-18T00:32:16;12.45;;;4.80;;
29280;SDS011;25048;49.590;11.026;2022-08-18T00:34:46;10.32;;;4.58;;
29280;SDS011;25048;49.590;11.026;2022-08-18T00:37:14;9.13;;;4.53;;
29280;SDS011;25048;49.590;11.026;2022-08-18T00:39:41;8.15;;;3.55;;
29280;SDS011;25048;49.590;11.026;2022-08-18T00:42:13;7.55;;;3.70;;
29280;SDS011;25048;49.590;11.026;2022-08-18T00:44:45;7.10;;;4.00;;
29280;SDS011;25048;49.590;11.026;2022-08-18T00:47:12;9.00;;;3.92;;
29280;SDS011;25048;49.590;11.026;2022-08-18T00:49:40;9.75;;;3.45;;
29280;SDS011;25048;49.590;11.026;2022-08-18T00:52:11;7.60;;;3.70;;
29280;SDS011;25048;49.590;11.026;2022-08-18T00:54:41;8.63;;;4.05;;
29280;SDS011;25048;49.590;11.026;2022-08-18T00:57:11;4.60;;;3.55;;
29280;SDS011;25048;49.590;11.026;2022-08-18T00:59:46;9.85;;;3.67;;
29280;SDS011;25048;49.590;11.026;2022-08-18T01:02:17;7.35;;;3.72;;
29280;SDS011;25048;49.590;11.026;2022-08-18T01:04:53;11.15;;;3.50;;
29280;SDS011;25048;49.590;11.026;2022-08-18T01:07:38;7.67;;;3.80;;
29280;SDS011;25048;49.590;11.026;2022-08-18T01:10:09;8.65;;;3.45;;
29280;SDS011;25048;49.590;11.026;2022-08-18T01:12:38;7.17;;;3.05;;
29280;SDS011;25048;49.590;11.026;2022-08-18T01:15:06;6.22;;;3.60;;
29280;SDS011;25048;49.590;11.026;2022-08-18T01:17:35;11.28;;;3.30;;
29280;SDS011;25048;49.590;11.026;2022-08-18T01:20:21;7.28;;;3.30;;
29280;SDS011;25048;49.590;11.026;2022-08-18T01:23:14;5.40;;;3.00;;
29280;SDS011;25048;49.590;11.026;2022-08-18T01:25:43;4.00;;;3.45;;
29280;SDS011;25048;49.590;11.026;2022-08-18T01:28:36;11.30;;;4.10;;
29280;SDS011;25048;49.590;11.026;2022-08-18T01:31:02;8.58;;;3.67;;
29280;SDS011;25048;49.590;11.026;2022-08-18T01:33:31;7.45;;;3.85;;
29280;SDS011;25048;49.590;11.026;2022-08-18T01:36:09;5.15;;;3.35;;
29280;SDS011;25048;49.590;11.026;2022-08-18T01:38:49;5.67;;;3.45;;
29280;SDS011;25048;49.590;11.026;2022-08-18T01:41:11;5.25;;;3.27;;
29280;SDS011;25048;49.590;11.026;2022-08-18T01:43:39;5.70;;;3.30;;
29280;SDS011;25048;49.590;11.026;2022-08-18T01:46:07;10.03;;;3.67;;
29280;SDS011;25048;49.590;11.026;2022-08-18T01:48:35;6.90;;;3.40;;
29280;SDS011;25048;49.590;11.026;2022-08-18T01:51:07;6.37;;;3.55;;
29280;SDS011;25048;49.590;11.026;2022-08-18T01:53:37;5.20;;;3.77;;
29280;SDS011;25048;49.590;11.026;2022-08-18T01:56:06;8.53;;;3.72;;
29280;SDS011;25048;49.590;11.026;2022-08-18T01:58:34;8.78;;;4.30;;
29280;SDS011;25048;49.590;11.026;2022-08-18T02:01:03;7.12;;;4.50;;
29280;SDS011;25048;49.590;11.026;2022-08-18T02:03:32;4.87;;;4.22;;
29280;SDS011;25048;49.590;11.026;2022-08-18T02:06:06;5.72;;;4.17;;
29280;SDS011;25048;49.590;11.026;2022-08-18T02:08:37;11.48;;;4.53;;
29280;SDS011;25048;49.590;11.026;2022-08-18T02:11:06;8.80;;;4.83;;
29280;SDS011;25048;49.590;11.026;2022-08-18T02:13:34;19.50;;;6.85;;
29280;SDS011;25048;49.590;11.026;2022-08-18T02:16:02;15.95;;;5.62;;
29280;SDS011;25048;49.590;11.026;2022-08-18T02:18:32;16.67;;;5.53;;
29280;SDS011;25048;49.590;11.026;2022-08-18T02:21:14;11.28;;;5.65;;
29280;SDS011;25048;49.590;11.026;2022-08-18T02:23:43;13.10;;;5.78;;
29280;SDS011;25048;49.590;11.026;2022-08-18T02:26:13;17.27;;;6.15;;
29280;SDS011;25048;49.590;11.026;2022-08-18T02:28:42;8.78;;;6.50;;
29280;SDS011;25048;49.590;11.026;2022-08-18T02:31:11;9.55;;;6.08;;
29280;SDS011;25048;49.590;11.026;2022-08-18T02:33:40;9.98;;;6.50;;
29280;SDS011;25048;49.590;11.026;2022-08-18T02:36:08;9.53;;;5.97;;
29280;SDS011;25048;49.590;11.026;2022-08-18T02:38:37;10.38;;;6.45;;
29280;SDS011;25048;49.590;11.026;2022-08-18T02:41:07;8.73;;;6.62;;
29280;SDS011;25048;49.590;11.026;2022-08-18T02:43:37;10.15;;;6.42;;
29280;SDS011;25048;49.590;11.026;2022-08-18T02:46:07;13.20;;;7.37;;
29280;SDS011;25048;49.590;11.026;2022-08-18T02:48:34;9.98;;;7.28;;
29280;SDS011;25048;49.590;11.026;2022-08-18T02:51:09;10.48;;;7.20;;
29280;SDS011;25048;49.590;11.026;2022-08-18T02:53:34;10.40;;;7.35;;
29280;SDS011;25048;49.590;11.026;2022-08-18T02:56:21;9.13;;;6.80;;
29280;SDS011;25048;49.590;11.026;2022-08-18T02:58:55;9.43;;;7.20;;
29280;SDS011;25048;49.590;11.026;2022-08-18T03:01:26;8.90;;;7.30;;
29280;SDS011;25048;49.590;11.026;2022-08-18T03:03:56;17.00;;;8.13;;
29280;SDS011;25048;49.590;11.026;2022-08-18T03:06:25;9.88;;;7.50;;
29280;SDS011;25048;49.590;11.026;2022-08-18T03:08:55;11.30;;;7.83;;
29280;SDS011;25048;49.590;11.026;2022-08-18T03:11:23;13.83;;;7.22;;
29280;SDS011;25048;49.590;11.026;2022-08-18T03:13:53;8.98;;;7.08;;
29280;SDS011;25048;49.590;11.026;2022-08-18T03:16:22;9.58;;;7.10;;
29280;SDS011;25048;49.590;11.026;2022-08-18T03:18:50;8.80;;;7.05;;
29280;SDS011;25048;49.590;11.026;2022-08-18T03:21:20;12.37;;;7.78;;
29280;SDS011;25048;49.590;11.026;2022-08-18T03:23:49;9.65;;;7.15;;
29280;SDS011;25048;49.590;11.026;2022-08-18T03:26:18;12.85;;;8.25;;
29280;SDS011;25048;49.590;11.026;2022-08-18T03:28:48;13.62;;;9.43;;
29280;SDS011;25048;49.590;11.026;2022-08-18T03:31:18;14.95;;;8.60;;
29280;SDS011;25048;49.590;11.026;2022-08-18T03:33:49;14.75;;;9.05;;
29280;SDS011;25048;49.590;11.026;2022-08-18T03:36:23;10.93;;;8.00;;
29280;SDS011;25048;49.590;11.026;2022-08-18T03:38:52;10.00;;;8.13;;
29280;SDS011;25048;49.590;11.026;2022-08-18T03:41:21;10.82;;;9.33;;
29280;SDS011;25048;49.590;11.026;2022-08-18T03:43:51;15.30;;;8.35;;
29280;SDS011;25048;49.590;11.026;2022-08-18T03:46:19;11.80;;;9.25;;
29280;SDS011;25048;49.590;11.026;2022-08-18T03:48:48;13.18;;;9.18;;
29280;SDS011;25048;49.590;11.026;2022-08-18T03:51:22;12.60;;;8.53;;
29280;SDS011;25048;49.590;11.026;2022-08-18T03:53:52;12.30;;;9.00;;
29280;SDS011;25048;49.590;11.026;2022-08-18T03:56:24;12.68;;;8.50;;
29280;SDS011;25048;49.590;11.026;2022-08-18T03:58:54;11.03;;;8.35;;
29280;SDS011;25048;49.590;11.026;2022-08-18T04:01:25;11.70;;;9.65;;
29280;SDS011;25048;49.590;11.026;2022-08-18T04:03:56;15.45;;;8.85;;
29280;SDS011;25048;49.590;11.026;2022-08-18T04:06:28;10.98;;;9.25;;
29280;SDS011;25048;49.590;11.026;2022-08-18T04:08:58;10.95;;;9.38;;
29280;SDS011;25048;49.590;11.026;2022-08-18T04:11:26;10.95;;;9.08;;
29280;SDS011;25048;49.590;11.026;2022-08-18T04:13:54;11.57;;;8.08;;
29280;SDS011;25048;49.590;11.026;2022-08-18T04:16:25;12.45;;;9.55;;
29280;SDS011;25048;49.590;11.026;2022-08-18T04:18:54;13.88;;;10.40;;
29280;SDS011;25048;49.590;11.026;2022-08-18T04:21:24;12.63;;;9.55;;
29280;SDS011;25048;49.590;11.026;2022-08-18T04:23:51;13.05;;;10.13;;
29280;SDS011;25048;49.590;11.026;2022-08-18T04:26:19;12.75;;;9.80;;
29280;SDS011;25048;49.590;11.026;2022-08-18T04:28:46;11.25;;;9.53;;
29280;SDS011;25048;49.590;11.026;2022-08-18T04:31:14;13.60;;;9.88;;
29280;SDS011;25048;49.590;11.026;2022-08-18T04:33:42;11.43;;;9.43;;
29280;SDS011;25048;49.590;11.026;2022-08-18T04:36:13;16.42;;;10.85;;
29280;SDS011;25048;49.590;11.026;2022-08-18T04:38:40;15.72;;;11.70;;
29280;SDS011;25048;49.590;11.026;2022-08-18T04:41:13;11.30;;;9.73;;
29280;SDS011;25048;49.590;11.026;2022-08-18T04:43:39;14.05;;;10.65;;
29280;SDS011;25048;49.590;11.026;2022-08-18T04:46:07;12.07;;;10.78;;
29280;SDS011;25048;49.590;11.026;2022-08-18T04:48:37;12.53;;;11.15;;
29280;SDS011;25048;49.590;11.026;2022-08-18T04:51:13;14.98;;;11.25;;
29280;SDS011;25048;49.590;11.026;2022-08-18T04:56:30;16.77;;;12.13;;
29280;SDS011;25048;49.590;11.026;2022-08-18T04:59:09;14.70;;;12.53;;
29280;SDS011;25048;49.590;11.026;2022-08-18T05:01:35;14.45;;;10.55;;
29280;SDS011;25048;49.590;11.026;2022-08-18T05:04:04;15.88;;;10.95;;
29280;SDS011;25048;49.590;11.026;2022-08-18T05:06:34;13.15;;;10.13;;
29280;SDS011;25048;49.590;11.026;2022-08-18T05:09:04;14.53;;;10.80;;
29280;SDS011;25048;49.590;11.026;2022-08-18T05:11:33;14.70;;;9.90;;
29280;SDS011;25048;49.590;11.026;2022-08-18T05:14:03;10.98;;;9.30;;
29280;SDS011;25048;49.590;11.026;2022-08-18T05:16:33;17.00;;;10.45;;
29280;SDS011;25048;49.590;11.026;2022-08-18T05:19:05;11.18;;;9.63;;
29280;SDS011;25048;49.590;11.026;2022-08-18T05:21:36;12.20;;;10.38;;
29280;SDS011;25048;49.590;11.026;2022-08-18T05:24:06;14.63;;;10.38;;
29280;SDS011;25048;49.590;11.026;2022-08-18T05:26:35;13.20;;;10.70;;
29280;SDS011;25048;49.590;11.026;2022-08-18T05:29:04;11.55;;;9.68;;
29280;SDS011;25048;49.590;11.026;2022-08-18T05:31:32;13.55;;;11.05;;
29280;SDS011;25048;49.590;11.026;2022-08-18T05:34:00;13.62;;;11.28;;
29280;SDS011;25048;49.590;11.026;2022-08-18T05:41:59;15.05;;;13.10;;
29280;SDS011;25048;49.590;11.026;2022-08-18T05:44:28;15.88;;;13.75;;
29280;SDS011;25048;49.590;11.026;2022-08-18T05:47:05;15.45;;;13.03;;
29280;SDS011;25048;49.590;11.026;2022-08-18T05:49:38;16.93;;;12.35;;
29280;SDS011;25048;49.590;11.026;2022-08-18T05:52:19;15.10;;;12.90;;
29280;SDS011;25048;49.590;11.026;2022-08-18T05:54:45;14.13;;;12.58;;
29280;SDS011;25048;49.590;11.026;2022-08-18T05:57:46;15.58;;;12.55;;
29280;SDS011;25048;49.590;11.026;2022-08-18T06:00:09;17.30;;;12.15;;
29280;SDS011;25048;49.590;11.026;2022-08-18T06:02:45;17.10;;;11.73;;
29280;SDS011;25048;49.590;11.026;2022-08-18T06:05:22;15.35;;;12.10;;
29280;SDS011;25048;49.590;11.026;2022-08-18T06:07:52;21.17;;;13.22;;
29280;SDS011;25048;49.590;11.026;2022-08-18T06:10:26;17.27;;;12.00;;
29280;SDS011;25048;49.590;11.026;2022-08-18T06:12:56;17.32;;;11.08;;
29280;SDS011;25048;49.590;11.026;2022-08-18T06:18:08;16.07;;;11.75;;
29280;SDS011;25048;49.590;11.026;2022-08-18T06:26:44;14.47;;;10.90;;
29280;SDS011;25048;49.590;11.026;2022-08-18T06:29:36;11.48;;;9.15;;
29280;SDS011;25048;49.590;11.026;2022-08-18T06:37:33;13.18;;;9.18;;
29280;SDS011;25048;49.590;11.026;2022-08-18T06:40:29;10.88;;;9.10;;
29280;SDS011;25048;49.590;11.026;2022-08-18T06:42:57;12.03;;;9.13;;
29280;SDS011;25048;49.590;11.026;2022-08-18T06:45:27;11.90;;;8.75;;
29280;SDS011;25048;49.590;11.026;2022-08-18T06:47:59;11.40;;;9.33;;
29280;SDS011;25048;49.590;11.026;2022-08-18T06:50:36;11.48;;;7.85;;
29280;SDS011;25048;49.590;11.026;2022-08-18T06:53:11;13.43;;;9.30;;
29280;SDS011;25048;49.590;11.026;2022-08-18T06:55:41;9.20;;;7.65;;
29280;SDS011;25048;49.590;11.026;2022-08-18T07:03:21;9.08;;;7.90;;
29280;SDS011;25048;49.590;11.026;2022-08-18T07:05:59;11.43;;;8.80;;
29280;SDS011;25048;49.590;11.026;2022-08-18T07:11:18;12.53;;;9.25;;
29280;SDS011;25048;49.590;11.026;2022-08-18T07:13:53;11.95;;;9.03;;
29280;SDS011;25048;49.590;11.026;2022-08-18T07:19:05;9.70;;;7.87;;
29280;SDS011;25048;49.590;11.026;2022-08-18T07:21:41;12.20;;;7.83;;
29280;SDS011;25048;49.590;11.026;2022-08-18T07:24:19;12.10;;;8.00;;
29280;SDS011;25048;49.590;11.026;2022-08-18T07:26:57;9.98;;;8.20;;
29280;SDS011;25048;49.590;11.026;2022-08-18T07:29:27;11.65;;;7.78;;
29280;SDS011;25048;49.590;11.026;2022-08-18T07:31:56;10.82;;;7.40;;
29280;SDS011;25048;49.590;11.026;2022-08-18T07:34:29;9.95;;;7.45;;
29280;SDS011;25048;49.590;11.026;2022-08-18T07:37:08;7.78;;;6.92;;
29280;SDS011;25048;49.590;11.026;2022-08-18T07:39:46;8.38;;;6.95;;
29280;SDS011;25048;49.590;11.026;2022-08-18T07:42:42;9.50;;;7.62;;
29280;SDS011;25048;49.590;11.026;2022-08-18T07:45:08;11.00;;;7.65;;
29280;SDS011;25048;49.590;11.026;2022-08-18T07:47:50;9.80;;;7.45;;
29280;SDS011;25048;49.590;11.026;2022-08-18T07:50:15;9.28;;;8.38;;
29280;SDS011;25048;49.590;11.026;2022-08-18T07:52:44;11.50;;;7.15;;
29280;SDS011;25048;49.590;11.026;2022-08-18T07:55:31;9.78;;;7.45;;
29280;SDS011;25048;49.590;11.026;2022-08-18T08:00:52;10.05;;;7.95;;
29280;SDS011;25048;49.590;11.026;2022-08-18T08:03:25;10.93;;;7.35;;
29280;SDS011;25048;49.590;11.026;2022-08-18T08:05:59;7.28;;;6.47;;
29280;SDS011;25048;49.590;11.026;2022-08-18T08:08:39;13.00;;;7.35;;
29280;SDS011;25048;49.590;11.026;2022-08-18T08:14:05;11.50;;;7.30;;
29280;SDS011;25048;49.590;11.026;2022-08-18T08:16:43;10.95;;;6.83;;
29280;SDS011;25048;49.590;11.026;2022-08-18T08:22:12;7.50;;;6.35;;
29280;SDS011;25048;49.590;11.026;2022-08-18T08:30:08;10.25;;;7.58;;
29280;SDS011;25048;49.590;11.026;2022-08-18T08:35:29;7.45;;;6.65;;
29280;SDS011;25048;49.590;11.026;2022-08-18T08:37:54;7.92;;;6.03;;
29280;SDS011;25048;49.590;11.026;2022-08-18T08:41:08;6.90;;;6.10;;
29280;SDS011;25048;49.590;11.026;2022-08-18T08:43:11;8.43;;;5.72;;
29280;SDS011;25048;49.590;11.026;2022-08-18T08:45:42;9.13;;;6.12;;
29280;SDS011;25048;49.590;11.026;2022-08-18T08:48:25;7.90;;;6.20;;
29280;SDS011;25048;49.590;11.026;2022-08-18T08:50:56;6.22;;;5.58;;
29280;SDS011;25048;49.590;11.026;2022-08-18T08:53:35;8.50;;;5.70;;
29280;SDS011;25048;49.590;11.026;2022-08-18T08:56:11;5.83;;;5.22;;
29280;SDS011;25048;49.590;11.026;2022-08-18T09:01:35;7.97;;;6.12;;
29280;SDS011;25048;49.590;11.026;2022-08-18T09:07:34;6.20;;;5.62;;
29280;SDS011;25048;49.590;11.026;2022-08-18T09:13:03;9.03;;;5.97;;
29280;SDS011;25048;49.590;11.026;2022-08-18T09:24:16;6.65;;;5.75;;
29280;SDS011;25048;49.590;11.026;2022-08-18T09:27:11;7.30;;;5.58;;
29280;SDS011;25048;49.590;11.026;2022-08-18T09:34:56;6.33;;;5.45;;
29280;SDS011;25048;49.590;11.026;2022-08-18T09:37:25;9.50;;;5.53;;
29280;SDS011;25048;49.590;11.026;2022-08-18T09:40:13;10.13;;;5.80;;
29280;SDS011;25048;49.590;11.026;2022-08-18T09:43:09;6.22;;;5.53;;
29280;SDS011;25048;49.590;11.026;2022-08-18T09:45:57;8.28;;;5.83;;
29280;SDS011;25048;49.590;11.026;2022-08-18T09:48:36;7.00;;;5.47;;
29280;SDS011;25048;49.590;11.026;2022-08-18T09:51:15;7.40;;;5.30;;
29280;SDS011;25048;49.590;11.026;2022-08-18T10:02:07;14.05;;;12.95;;
29280;SDS011;25048;49.590;11.026;2022-08-18T10:04:38;10.63;;;5.42;;
29280;SDS011;25048;49.590;11.026;2022-08-18T10:07:13;7.22;;;5.67;;
29280;SDS011;25048;49.590;11.026;2022-08-18T10:12:57;6.87;;;6.03;;
29280;SDS011;25048;49.590;11.026;2022-08-18T10:18:31;7.83;;;5.75;;
29280;SDS011;25048;49.590;11.026;2022-08-18T10:21:11;6.37;;;5.78;;
29280;SDS011;25048;49.590;11.026;2022-08-18T10:27:06;8.18;;;6.03;;
29280;SDS011;25048;49.590;11.026;2022-08-18T10:29:08;7.62;;;5.58;;
29280;SDS011;25048;49.590;11.026;2022-08-18T10:37:25;10.08;;;6.65;;
29280;SDS011;25048;49.590;11.026;2022-08-18T10:42:39;5.78;;;5.28;;
29280;SDS011;25048;49.590;11.026;2022-08-18T10:45:09;6.10;;;5.50;;
29280;SDS011;25048;49.590;11.026;2022-08-18T10:47:58;8.23;;;5.83;;
29280;SDS011;25048;49.590;11.026;2022-08-18T10:50:28;5.85;;;5.25;;
29280;SDS011;25048;49.590;11.026;2022-08-18T10:53:03;8.90;;;5.47;;
29280;SDS011;25048;49.590;11.026;2022-08-18T10:55:50;7.30;;;5.05;;
29280;SDS011;25048;49.590;11.026;2022-08-18T11:01:15;6.95;;;5.28;;
29280;SDS011;25048;49.590;11.026;2022-08-18T11:03:44;6.97;;;5.97;;
29280;SDS011;25048;49.590;11.026;2022-08-18T11:06:15;5.62;;;5.15;;
29280;SDS011;25048;49.590;11.026;2022-08-18T11:08:43;6.58;;;5.65;;
29280;SDS011;25048;49.590;11.026;2022-08-18T11:11:12;7.37;;;5.92;;
29280;SDS011;25048;49.590;11.026;2022-08-18T11:14:07;8.25;;;5.80;;
29280;SDS011;25048;49.590;11.026;2022-08-18T11:18:50;9.93;;;5.95;;
29280;SDS011;25048;49.590;11.026;2022-08-18T11:21:22;7.30;;;5.53;;
29280;SDS011;25048;49.590;11.026;2022-08-18T11:26:48;6.17;;;5.58;;
29280;SDS011;25048;49.590;11.026;2022-08-18T11:34:58;8.20;;;5.05;;
29280;SDS011;25048;49.590;11.026;2022-08-18T11:51:01;6.12;;;4.97;;
29280;SDS011;25048;49.590;11.026;2022-08-18T11:56:15;7.62;;;5.40;;
29280;SDS011;25048;49.590;11.026;2022-08-18T11:58:42;6.92;;;5.83;;
29280;SDS011;25048;49.590;11.026;2022-08-18T12:01:57;8.93;;;6.00;;
29280;SDS011;25048;49.590;11.026;2022-08-18T12:03:58;6.50;;;5.72;;
29280;SDS011;25048;49.590;11.026;2022-08-18T12:09:41;5.20;;;4.58;;
29280;SDS011;25048;49.590;11.026;2022-08-18T12:14:57;9.88;;;5.28;;
29280;SDS011;25048;49.590;11.026;2022-08-18T12:17:32;7.35;;;5.45;;
29280;SDS011;25048;49.590;11.026;2022-08-18T12:19:59;9.03;;;5.80;;
29280;SDS011;25048;49.590;11.026;2022-08-18T12:22:27;6.75;;;5.28;;
29280;SDS011;25048;49.590;11.026;2022-08-18T12:24:59;7.75;;;5.50;;
29280;SDS011;25048;49.590;11.026;2022-08-18T12:27:28;8.08;;;5.15;;
29280;SDS011;25048;49.590;11.026;2022-08-18T12:29:58;7.00;;;5.12;;
29280;SDS011;25048;49.590;11.026;2022-08-18T12:32:27;5.53;;;4.80;;
29280;SDS011;25048;49.590;11.026;2022-08-18T12:34:58;8.80;;;5.33;;
29280;SDS011;25048;49.590;11.026;2022-08-18T12:37:26;5.92;;;5.33;;
29280;SDS011;25048;49.590;11.026;2022-08-18T12:39:56;5.85;;;5.35;;
29280;SDS011;25048;49.590;11.026;2022-08-18T12:42:25;6.72;;;6.00;;
29280;SDS011;25048;49.590;11.026;2022-08-18T12:44:53;7.62;;;5.22;;
29280;SDS011;25048;49.590;11.026;2022-08-18T12:47:21;5.45;;;4.95;;
29280;SDS011;25048;49.590;11.026;2022-08-18T12:49:51;6.78;;;5.65;;
29280;SDS011;25048;49.590;11.026;2022-08-18T12:52:18;8.10;;;5.00;;
29280;SDS011;25048;49.590;11.026;2022-08-18T12:54:46;5.58;;;5.00;;
29280;SDS011;25048;49.590;11.026;2022-08-18T12:57:19;12.07;;;5.95;;
29280;SDS011;25048;49.590;11.026;2022-08-18T12:59:47;6.45;;;4.80;;
29280;SDS011;25048;49.590;11.026;2022-08-18T13:02:15;7.03;;;5.35;;
29280;SDS011;25048;49.590;11.026;2022-08-18T13:04:43;5.75;;;5.15;;
29280;SDS011;25048;49.590;11.026;2022-08-18T13:07:11;11.05;;;5.37;;
29280;SDS011;25048;49.590;11.026;2022-08-18T13:09:42;5.65;;;5.15;;
29280;SDS011;25048;49.590;11.026;2022-08-18T13:12:10;6.50;;;5.65;;
29280;SDS011;25048;49.590;11.026;2022-08-18T13:14:39;6.55;;;5.00;;
29280;SDS011;25048;49.590;11.026;2022-08-18T13:17:06;9.05;;;5.50;;
29280;SDS011;25048;49.590;11.026;2022-08-18T13:19:34;8.58;;;6.35;;
29280;SDS011;25048;49.590;11.026;2022-08-18T13:22:03;8.83;;;4.70;;
29280;SDS011;25048;49.590;11.026;2022-08-18T13:24:31;7.62;;;5.62;;
29280;SDS011;25048;49.590;11.026;2022-08-18T13:26:58;7.35;;;5.20;;
29280;SDS011;25048;49.590;11.026;2022-08-18T13:29:27;7.10;;;5.25;;
29280;SDS011;25048;49.590;11.026;2022-08-18T13:31:55;7.87;;;5.72;;
29280;SDS011;25048;49.590;11.026;2022-08-18T13:34:25;11.80;;;5.67;;
29280;SDS011;25048;49.590;11.026;2022-08-18T13:36:53;9.48;;;5.47;;
29280;SDS011;25048;49.590;11.026;2022-08-18T13:39:22;7.20;;;5.70;;
29280;SDS011;25048;49.590;11.026;2022-08-18T13:41:51;8.33;;;5.80;;
29280;SDS011;25048;49.590;11.026;2022-08-18T13:44:20;8.53;;;5.30;;
29280;SDS011;25048;49.590;11.026;2022-08-18T13:46:49;7.33;;;5.60;;
29280;SDS011;25048;49.590;11.026;2022-08-18T13:49:18;7.47;;;5.72;;
29280;SDS011;25048;49.590;11.026;2022-08-18T13:51:47;7.45;;;5.58;;
29280;SDS011;25048;49.590;11.026;2022-08-18T13:54:19;7.45;;;5.50;;
29280;SDS011;25048;49.590;11.026;2022-08-18T13:56:49;7.28;;;5.37;;
29280;SDS011;25048;49.590;11.026;2022-08-18T13:59:18;6.10;;;5.50;;
29280;SDS011;25048;49.590;11.026;2022-08-18T14:01:47;5.58;;;4.97;;
29280;SDS011;25048;49.590;11.026;2022-08-18T14:04:16;6.92;;;5.20;;
29280;SDS011;25048;49.590;11.026;2022-08-18T14:06:45;6.58;;;5.00;;
29280;SDS011;25048;49.590;11.026;2022-08-18T14:09:12;7.10;;;5.30;;
29280;SDS011;25048;49.590;11.026;2022-08-18T14:11:40;5.62;;;5.12;;
29280;SDS011;25048;49.590;11.026;2022-08-18T14:14:07;8.38;;;5.70;;
29280;SDS011;25048;49.590;11.026;2022-08-18T14:16:35;6.55;;;5.17;;
29280;SDS011;25048;49.590;11.026;2022-08-18T14:19:04;6.45;;;5.08;;
29280;SDS011;25048;49.590;11.026;2022-08-18T14:21:50;8.10;;;5.80;;
29280;SDS011;25048;49.590;11.026;2022-08-18T14:24:39;10.23;;;5.00;;
29280;SDS011;25048;49.590;11.026;2022-08-18T14:27:27;7.85;;;5.28;;
29280;SDS011;25048;49.590;11.026;2022-08-18T14:29:56;6.08;;;5.30;;
29280;SDS011;25048;49.590;11.026;2022-08-18T14:32:26;7.85;;;5.37;;
29280;SDS011;25048;49.590;11.026;2022-08-18T14:34:57;7.22;;;5.37;;
29280;SDS011;25048;49.590;11.026;2022-08-18T14:37:27;6.35;;;5.47;;
29280;SDS011;25048;49.590;11.026;2022-08-18T14:39:56;5.58;;;4.78;;
29280;SDS011;25048;49.590;11.026;2022-08-18T14:42:24;5.92;;;5.33;;
29280;SDS011;25048;49.590;11.026;2022-08-18T14:44:52;6.40;;;5.33;;
29280;SDS011;25048;49.590;11.026;2022-08-18T14:47:20;7.00;;;5.40;;
29280;SDS011;25048;49.590;11.026;2022-08-18T14:49:48;6.03;;;5.30;;
29280;SDS011;25048;49.590;11.026;2022-08-18T14:52:15;6.95;;;5.05;;
29280;SDS011;25048;49.590;11.026;2022-08-18T14:54:43;6.67;;;5.87;;
29280;SDS011;25048;49.590;11.026;2022-08-18T14:57:11;8.00;;;5.45;;
29280;SDS011;25048;49.590;11.026;2022-08-18T14:59:39;7.80;;;5.60;;
29280;SDS011;25048;49.590;11.026;2022-08-18T15:02:08;8.38;;;5.67;;
29280;SDS011;25048;49.590;11.026;2022-08-18T15:04:37;10.05;;;4.97;;
29280;SDS011;25048;49.590;11.026;2022-08-18T15:07:05;6.35;;;5.75;;
29280;SDS011;25048;49.590;11.026;2022-08-18T15:09:32;6.03;;;5.42;;
29280;SDS011;25048;49.590;11.026;2022-08-18T15:12:00;6.33;;;5.62;;
29280;SDS011;25048;49.590;11.026;2022-08-18T15:14:29;7.08;;;5.40;;
29280;SDS011;25048;49.590;11.026;2022-08-18T15:16:58;7.37;;;4.92;;
29280;SDS011;25048;49.590;11.026;2022-08-18T15:19:27;6.90;;;5.78;;
29280;SDS011;25048;49.590;11.026;2022-08-18T15:21:54;6.40;;;5.15;;
29280;SDS011;25048;49.590;11.026;2022-08-18T15:24:40;6.60;;;5.45;;
29280;SDS011;25048;49.590;11.026;2022-08-18T15:27:30;6.80;;;4.97;;
29280;SDS011;25048;49.590;11.026;2022-08-18T15:30:03;5.87;;;5.28;;
29280;SDS011;25048;49.590;11.026;2022-08-18T15:32:32;10.60;;;5.80;;
29280;SDS011;25048;49.590;11.026;2022-08-18T15:34:59;10.00;;;5.90;;
29280;SDS011;25048;49.590;11.026;2022-08-18T15:37:27;5.58;;;5.08;;
29280;SDS011;25048;49.590;11.026;2022-08-18T15:39:59;5.78;;;5.12;;
29280;SDS011;25048;49.590;11.026;2022-08-18T15:42:45;10.55;;;5.85;;
29280;SDS011;25048;49.590;11.026;2022-08-18T15:45:21;11.48;;;5.60;;
29280;SDS011;25048;49.590;11.026;2022-08-18T15:47:49;6.05;;;5.37;;
29280;SDS011;25048;49.590;11.026;2022-08-18T15:50:19;10.10;;;5.65;;
29280;SDS011;25048;49.590;11.026;2022-08-18T15:52:48;7.30;;;5.95;;
29280;SDS011;25048;49.590;11.026;2022-08-18T15:55:18;6.80;;;5.30;;
29280;SDS011;25048;49.590;11.026;2022-08-18T15:57:47;9.65;;;5.50;;
29280;SDS011;25048;49.590;11.026;2022-08-18T16:00:15;7.78;;;5.22;;
29280;SDS011;25048;49.590;11.026;2022-08-18T16:02:52;7.20;;;5.35;;
29280;SDS011;25048;49.590;11.026;2022-08-18T16:05:25;9.48;;;5.72;;
29280;SDS011;25048;49.590;11.026;2022-08-18T16:07:55;8.38;;;5.35;;
29280;SDS011;25048;49.590;11.026;2022-08-18T16:10:25;7.03;;;5.28;;
29280;SDS011;25048;49.590;11.026;2022-08-18T16:12:54;8.88;;;5.17;;
29280;SDS011;25048;49.590;11.026;2022-08-18T16:15:22;7.92;;;5.42;;
29280;SDS011;25048;49.590;11.026;2022-08-18T16:17:51;7.72;;;5.12;;
29280;SDS011;25048;49.590;11.026;2022-08-18T16:20:21;6.08;;;5.47;;
29280;SDS011;25048;49.590;11.026;2022-08-18T16:22:50;9.58;;;5.28;;
29280;SDS011;25048;49.590;11.026;2022-08-18T16:25:19;7.90;;;5.30;;
29280;SDS011;25048;49.590;11.026;2022-08-18T16:27:46;10.13;;;5.67;;
29280;SDS011;25048;49.590;11.026;2022-08-18T16:30:16;6.55;;;5.45;;
29280;SDS011;25048;49.590;11.026;2022-08-18T16:32:44;6.65;;;5.50;;
29280;SDS011;25048;49.590;11.026;2022-08-18T16:35:13;7.62;;;5.25;;
29280;SDS011;25048;49.590;11.026;2022-08-18T16:37:43;5.87;;;5.28;;
29280;SDS011;25048;49.590;11.026;2022-08-18T16:40:12;7.55;;;5.22;;
29280;SDS011;25048;49.590;11.026;2022-08-18T16:42:41;6.75;;;5.42;;
29280;SDS011;25048;49.590;11.026;2022-08-18T16:45:10;6.25;;;5.55;;
29280;SDS011;25048;49.590;11.026;2022-08-18T16:47:38;6.00;;;5.37;;
29280;SDS011;25048;49.590;11.026;2022-08-18T16:50:07;9.03;;;5.95;;
29280;SDS011;25048;49.590;11.026;2022-08-18T16:52:37;6.20;;;5.25;;
29280;SDS011;25048;49.590;11.026;2022-08-18T16:55:06;7.85;;;5.78;;
29280;SDS011;25048;49.590;11.026;2022-08-18T16:57:39;6.08;;;5.47;;
29280;SDS011;25048;49.590;11.026;2022-08-18T17:00:25;5.90;;;5.30;;
29280;SDS011;25048;49.590;11.026;2022-08-18T17:03:11;5.85;;;5.30;;
29280;SDS011;25048;49.590;11.026;2022-08-18T17:06:04;6.42;;;5.67;;
29280;SDS011;25048;49.590;11.026;2022-08-18T17:08:37;11.20;;;5.17;;
29280;SDS011;25048;49.590;11.026;2022-08-18T17:11:06;6.20;;;5.50;;